createdAt,value
2018-08-17T00:00:03.988Z,72.21
2018-08-17T00:01:09.831Z,72.53
2018-08-17T00:02:15.763Z,72.68
2018-08-17T00:03:22.438Z,72.18
2018-08-17T00:04:28.712Z,72.40
2018-08-17T00:05:35.021Z,72.66
2018-08-17T00:06:41.610Z,72.50
2018-08-17T00:07:47.748Z,72.67
2018-08-17T00:08:54.202Z,72.31
2018-08-17T00:10:00.647Z,71.86
2018-08-17T00:11:06.672Z,71.85
2018-08-17T00:12:12.658Z,71.51
2018-08-17T00:13:18.727Z,71.49
2018-08-17T00:14:24.690Z,72.00
2018-08-17T00:15:30.834Z,71.90
2018-08-17T00:16:36.944Z,71.95
2018-08-17T00:17:43.261Z,71.96
2018-08-17T00:18:49.384Z,72.04
2018-08-17T00:19:55.970Z,72.73
2018-08-17T00:21:02.310Z,73.00
2018-08-17T00:22:08.252Z,73.44
2018-08-17T00:23:14.292Z,73.83
2018-08-17T00:24:20.581Z,73.99
2018-08-17T00:25:26.558Z,74.13
2018-08-17T00:26:32.429Z,74.20
2018-08-17T00:27:38.744Z,73.87
2018-08-17T00:28:45.117Z,73.39
2018-08-17T00:29:51.765Z,73.62
2018-08-17T00:30:57.714Z,74.29
2018-08-17T00:32:03.703Z,74.28
2018-08-17T00:33:09.735Z,74.14
2018-08-17T00:34:16.156Z,74.21
2018-08-17T00:35:22.508Z,75.08
2018-08-17T00:36:28.104Z,75.01
2018-08-17T00:37:34.488Z,74.67
2018-08-17T00:38:40.836Z,74.96
2018-08-17T00:39:47.139Z,75.18
2018-08-17T00:40:53.109Z,75.30
2018-08-17T00:41:59.113Z,75.09
2018-08-17T00:43:05.252Z,74.94
2018-08-17T00:44:11.655Z,75.26
2018-08-17T00:45:23.082Z,75.60
2018-08-17T00:46:29.419Z,75.09
2018-08-17T00:47:35.963Z,75.67
2018-08-17T00:48:41.892Z,75.69
2018-08-17T00:49:49.015Z,75.68
2018-08-17T00:50:55.240Z,76.28
2018-08-17T00:52:01.657Z,75.77
2018-08-17T00:53:07.305Z,76.63
2018-08-17T00:54:13.656Z,76.52
2018-08-17T00:55:19.877Z,76.62
2018-08-17T00:56:26.248Z,77.06
2018-08-17T00:57:32.792Z,77.28
2018-08-17T00:58:39.177Z,76.37
2018-08-17T00:59:45.428Z,75.90
2018-08-17T01:00:51.735Z,75.72
2018-08-17T01:02:02.003Z,76.03
2018-08-17T01:03:07.628Z,77.06
2018-08-17T01:04:14.021Z,78.13
2018-08-17T01:05:21.568Z,77.25
2018-08-17T01:06:27.814Z,77.03
2018-08-17T01:07:34.314Z,77.84
2018-08-17T01:08:40.671Z,78.03
2018-08-17T01:09:46.615Z,78.07
2018-08-17T01:10:52.644Z,77.88
2018-08-17T01:11:58.955Z,77.87
2018-08-17T01:13:04.227Z,78.34
2018-08-17T01:14:10.310Z,77.94
2018-08-17T01:15:16.560Z,78.07
2018-08-17T01:16:22.569Z,77.82
2018-08-17T01:17:29.016Z,78.00
2018-08-17T01:18:34.651Z,78.22
2018-08-17T01:19:40.795Z,78.44
2018-08-17T01:20:47.199Z,78.23
2018-08-17T01:21:53.639Z,78.35
2018-08-17T01:22:59.963Z,78.33
2018-08-17T01:24:05.578Z,78.99
2018-08-17T01:25:12.272Z,78.47
2018-08-17T01:26:18.597Z,78.28
2018-08-17T01:27:24.867Z,78.59
2018-08-17T01:28:31.040Z,78.19
2018-08-17T01:29:37.307Z,78.39
2018-08-17T01:30:43.613Z,78.57
2018-08-17T01:31:49.596Z,78.75
2018-08-17T01:32:56.129Z,79.75
2018-08-17T01:34:02.832Z,79.56
2018-08-17T01:35:09.188Z,79.34
2018-08-17T01:36:15.561Z,80.00
2018-08-17T01:37:22.612Z,81.05
2018-08-17T01:38:29.043Z,80.48
2018-08-17T01:39:35.324Z,79.62
2018-08-17T01:40:41.584Z,79.42
2018-08-17T01:41:47.952Z,79.56
2018-08-17T01:42:54.269Z,79.41
2018-08-17T01:44:00.755Z,79.41
2018-08-17T01:45:06.656Z,79.45
2018-08-17T01:46:12.999Z,79.61
2018-08-17T01:47:19.347Z,79.94
2018-08-17T01:48:25.380Z,79.39
2018-08-17T01:49:31.789Z,79.51
2018-08-17T01:50:38.044Z,79.50
2018-08-17T01:51:44.359Z,79.75
2018-08-17T01:52:51.376Z,80.11
2018-08-17T01:53:57.594Z,80.02
2018-08-17T01:55:03.648Z,79.63
2018-08-17T01:56:10.218Z,78.98
2018-08-17T01:57:16.636Z,78.89
2018-08-17T01:58:23.052Z,78.68
2018-08-17T01:59:29.376Z,78.79
2018-08-17T02:00:35.829Z,79.18
2018-08-17T02:01:42.116Z,78.66
2018-08-17T02:02:48.552Z,78.50
2018-08-17T02:03:54.718Z,78.49
2018-08-17T02:05:01.250Z,78.19
2018-08-17T02:06:07.712Z,78.25
2018-08-17T02:07:14.033Z,78.78
2018-08-17T02:08:20.842Z,79.10
2018-08-17T02:09:26.760Z,79.26
2018-08-17T02:10:32.815Z,79.13
2018-08-17T02:11:39.439Z,79.15
2018-08-17T02:12:45.846Z,78.83
2018-08-17T02:13:52.133Z,79.18
2018-08-17T02:14:58.489Z,78.88
2018-08-17T02:16:05.373Z,80.10
2018-08-17T02:17:11.614Z,79.85
2018-08-17T02:18:17.533Z,79.86
2018-08-17T02:19:23.924Z,79.97
2018-08-17T02:20:30.219Z,79.72
2018-08-17T02:21:37.429Z,80.25
2018-08-17T02:22:43.857Z,80.43
2018-08-17T02:23:49.997Z,80.29
2018-08-17T02:24:56.307Z,81.08
2018-08-17T02:26:02.576Z,80.40
2018-08-17T02:27:08.589Z,80.64
2018-08-17T02:28:14.579Z,80.52
2018-08-17T02:29:21.637Z,80.24
2018-08-17T02:30:28.221Z,80.01
2018-08-17T02:31:34.716Z,80.30
2018-08-17T02:32:41.108Z,80.32
2018-08-17T02:33:47.377Z,80.74
2018-08-17T02:34:53.720Z,81.39
2018-08-17T02:35:59.996Z,81.53
2018-08-17T02:37:06.323Z,80.87
2018-08-17T02:38:12.716Z,80.93
2018-08-17T02:39:20.049Z,80.72
2018-08-17T02:40:26.412Z,80.91
2018-08-17T02:41:32.360Z,81.19
2018-08-17T02:42:38.338Z,81.43
2018-08-17T02:43:44.382Z,80.92
2018-08-17T02:44:50.753Z,81.58
2018-08-17T02:45:57.018Z,81.53
2018-08-17T02:47:03.232Z,81.66
2018-08-17T02:48:10.459Z,81.64
2018-08-17T02:49:17.653Z,81.53
2018-08-17T02:50:24.037Z,81.09
2018-08-17T02:51:30.316Z,81.34
2018-08-17T02:52:36.643Z,81.07
2018-08-17T02:53:42.969Z,80.92
2018-08-17T02:54:49.288Z,80.83
2018-08-17T02:55:55.677Z,80.65
2018-08-17T02:57:01.973Z,81.00
2018-08-17T02:58:08.640Z,81.38
2018-08-17T02:59:14.649Z,82.15
2018-08-17T03:00:20.992Z,82.23
2018-08-17T03:01:27.176Z,81.82
2018-08-17T03:02:33.442Z,81.80
2018-08-17T03:03:39.758Z,82.14
2018-08-17T03:04:46.197Z,82.62
2018-08-17T03:05:52.559Z,82.59
2018-08-17T03:06:58.769Z,82.32
2018-08-17T03:08:04.993Z,82.46
2018-08-17T03:09:11.040Z,82.20
2018-08-17T03:10:17.330Z,82.14
2018-08-17T03:11:23.685Z,82.23
2018-08-17T03:12:30.083Z,81.85
2018-08-17T03:13:36.378Z,81.89
2018-08-17T03:14:42.673Z,82.26
2018-08-17T03:15:48.984Z,81.47
2018-08-17T03:16:55.246Z,81.27
2018-08-17T03:18:01.848Z,81.23
2018-08-17T03:19:08.126Z,80.73
2018-08-17T03:20:14.076Z,81.03
2018-08-17T03:21:20.338Z,81.65
2018-08-17T03:22:26.688Z,81.48
2018-08-17T03:23:32.999Z,81.78
2018-08-17T03:24:39.286Z,81.23
2018-08-17T03:25:45.592Z,81.66
2018-08-17T03:26:52.339Z,81.69
2018-08-17T03:27:58.748Z,80.40
2018-08-17T03:29:04.695Z,79.60
2018-08-17T03:30:10.982Z,80.17
2018-08-17T03:31:17.256Z,80.54
2018-08-17T03:32:23.611Z,80.13
2018-08-17T03:33:30.016Z,80.39
2018-08-17T03:34:36.425Z,80.65
2018-08-17T03:35:42.702Z,82.70
2018-08-17T03:36:49.204Z,83.72
2018-08-17T03:37:55.496Z,84.04
2018-08-17T03:39:01.943Z,83.24
2018-08-17T03:40:08.241Z,82.52
2018-08-17T03:41:14.505Z,82.75
2018-08-17T03:42:20.875Z,83.76
2018-08-17T03:43:27.234Z,84.24
2018-08-17T03:44:33.510Z,84.68
2018-08-17T03:45:40.125Z,84.74
2018-08-17T03:46:46.624Z,84.12
2018-08-17T03:47:52.785Z,84.37
2018-08-17T03:48:59.120Z,85.12
2018-08-17T03:50:04.813Z,85.30
2018-08-17T03:51:10.900Z,85.33
2018-08-17T03:52:17.317Z,84.94
2018-08-17T03:53:23.620Z,83.67
2018-08-17T03:54:29.929Z,83.34
2018-08-17T03:55:36.799Z,84.60
2018-08-17T03:56:43.299Z,85.65
2018-08-17T03:57:49.688Z,87.58
2018-08-17T03:58:55.969Z,87.55
2018-08-17T04:00:01.944Z,86.24
2018-08-17T04:01:07.987Z,85.29
2018-08-17T04:02:14.331Z,84.95
2018-08-17T04:03:20.657Z,85.02
2018-08-17T04:04:26.588Z,84.46
2018-08-17T04:05:33.236Z,84.22
2018-08-17T04:06:39.546Z,84.82
2018-08-17T04:07:45.750Z,84.66
2018-08-17T04:08:51.990Z,84.67
2018-08-17T04:09:58.273Z,84.55
2018-08-17T04:11:04.625Z,84.23
2018-08-17T04:12:10.548Z,84.50
2018-08-17T04:13:16.832Z,84.93
2018-08-17T04:14:23.168Z,85.02
2018-08-17T04:15:29.470Z,84.54
2018-08-17T04:16:35.749Z,83.93
2018-08-17T04:17:42.084Z,82.82
2018-08-17T04:18:48.386Z,82.29
2018-08-17T04:19:54.687Z,81.94
2018-08-17T04:21:00.988Z,81.48
2018-08-17T04:22:06.988Z,81.46
2018-08-17T04:23:13.569Z,80.90
2018-08-17T04:24:19.983Z,80.29
2018-08-17T04:25:26.260Z,80.04
2018-08-17T04:26:32.572Z,79.74
2018-08-17T04:27:38.865Z,79.28
2018-08-17T04:28:45.096Z,78.92
2018-08-17T04:29:51.381Z,78.70
2018-08-17T04:30:57.714Z,77.50
2018-08-17T04:32:03.643Z,76.88
2018-08-17T04:33:09.936Z,76.81
2018-08-17T04:34:16.548Z,76.98
2018-08-17T04:35:23.714Z,76.93
2018-08-17T04:36:30.104Z,77.60
2018-08-17T04:37:36.404Z,77.30
2018-08-17T04:38:42.723Z,76.67
2018-08-17T04:39:48.629Z,76.83
2018-08-17T04:40:55.023Z,78.20
2018-08-17T04:42:01.420Z,78.68
2018-08-17T04:43:07.277Z,79.24
2018-08-17T04:44:13.587Z,79.60
2018-08-17T04:45:19.847Z,78.82
2018-08-17T04:46:26.234Z,77.48
2018-08-17T04:47:32.703Z,76.59
2018-08-17T04:48:38.924Z,76.82
2018-08-17T04:49:45.551Z,77.70
2018-08-17T04:50:52.033Z,77.96
2018-08-17T04:51:58.338Z,79.06
2018-08-17T04:53:04.651Z,78.08
2018-08-17T04:54:11.076Z,79.72
2018-08-17T04:55:17.380Z,79.84
2018-08-17T04:56:23.690Z,79.66
2018-08-17T04:57:30.004Z,79.64
2018-08-17T04:58:36.340Z,79.43
2018-08-17T04:59:43.445Z,78.51
2018-08-17T05:00:49.784Z,80.42
2018-08-17T05:01:56.059Z,80.12
2018-08-17T05:03:02.376Z,80.30
2018-08-17T05:04:08.704Z,78.69
2018-08-17T05:05:15.032Z,78.01
2018-08-17T05:06:21.311Z,78.73
2018-08-17T05:07:28.043Z,78.72
2018-08-17T05:08:34.403Z,78.62
2018-08-17T05:09:40.565Z,78.17
2018-08-17T05:10:47.540Z,78.12
2018-08-17T05:11:55.258Z,78.51
2018-08-17T05:13:02.792Z,78.11
2018-08-17T05:14:10.354Z,78.72
2018-08-17T05:15:19.088Z,78.71
2018-08-17T05:16:27.400Z,78.15
2018-08-17T05:17:35.162Z,77.52
2018-08-17T05:18:43.427Z,77.25
2018-08-17T05:19:51.107Z,78.08
2018-08-17T05:20:59.138Z,77.03
2018-08-17T05:22:21.124Z,76.03
2018-08-17T05:23:37.730Z,76.74
2018-08-17T05:24:58.167Z,75.99
2018-08-17T05:26:18.678Z,75.11
2018-08-17T05:27:44.146Z,75.34
2018-08-17T05:29:03.055Z,75.13
2018-08-17T05:30:24.260Z,75.33
2018-08-17T05:31:48.483Z,74.87
2018-08-17T05:33:14.495Z,74.65
2018-08-17T05:34:35.715Z,74.85
2018-08-17T05:35:49.073Z,74.26
2018-08-17T05:37:09.144Z,73.83
2018-08-17T05:38:31.369Z,73.14
2018-08-17T05:39:49.576Z,72.77
2018-08-17T05:41:00.722Z,72.27
2018-08-17T05:42:09.257Z,71.66
2018-08-17T05:43:16.877Z,71.11
2018-08-17T05:44:25.046Z,70.72
2018-08-17T05:45:33.108Z,70.86
2018-08-17T05:46:40.899Z,70.97
2018-08-17T05:47:48.936Z,70.61
2018-08-17T05:49:08.474Z,71.22
2018-08-17T05:50:26.238Z,70.93
2018-08-17T05:51:45.597Z,70.66
2018-08-17T05:53:00.603Z,69.56
2018-08-17T05:54:19.017Z,69.04
2018-08-17T05:55:37.216Z,69.09
2018-08-17T05:56:48.169Z,69.30
2018-08-17T05:57:56.478Z,69.68
2018-08-17T05:59:05.310Z,69.64
2018-08-17T06:00:14.390Z,68.54
2018-08-17T06:01:21.827Z,68.91
2018-08-17T06:02:28.855Z,69.57
2018-08-17T06:03:44.742Z,70.12
2018-08-17T06:04:55.041Z,69.75
2018-08-17T06:06:01.380Z,68.61
2018-08-17T06:07:07.345Z,68.69
2018-08-17T06:08:13.721Z,68.01
2018-08-17T06:09:20.127Z,68.09
2018-08-17T06:10:26.046Z,69.02
2018-08-17T06:11:32.447Z,68.47
2018-08-17T06:12:38.752Z,68.90
2018-08-17T06:13:45.052Z,69.32
2018-08-17T06:14:51.347Z,69.38
2018-08-17T06:15:57.680Z,69.61
2018-08-17T06:17:03.280Z,68.71
2018-08-17T06:18:08.917Z,68.98
2018-08-17T06:19:15.199Z,68.33
2018-08-17T06:20:21.629Z,68.06
2018-08-17T06:21:27.449Z,68.63
2018-08-17T06:22:33.830Z,69.06
2018-08-17T06:23:39.532Z,68.62
2018-08-17T06:24:45.931Z,67.72
2018-08-17T06:25:51.928Z,67.30
2018-08-17T06:26:57.872Z,67.14
2018-08-17T06:28:03.459Z,66.66
2018-08-17T06:29:10.024Z,67.90
2018-08-17T06:30:16.386Z,68.11
2018-08-17T06:31:22.291Z,67.16
2018-08-17T06:32:28.691Z,67.24
2018-08-17T06:33:34.995Z,66.33
2018-08-17T06:34:41.314Z,66.67
2018-08-17T06:35:47.266Z,67.46
2018-08-17T06:36:53.340Z,67.73
2018-08-17T06:37:59.750Z,67.58
2018-08-17T06:39:17.904Z,66.90
2018-08-17T06:40:33.444Z,66.18
2018-08-17T06:41:51.578Z,65.93
2018-08-17T06:43:11.635Z,65.52
2018-08-17T06:44:32.317Z,65.34
2018-08-17T06:45:48.382Z,65.18
2018-08-17T06:47:07.788Z,66.02
2018-08-17T06:48:28.043Z,66.60
2018-08-17T06:49:52.282Z,66.94
2018-08-17T06:52:26.632Z,67.02
2018-08-17T06:53:45.091Z,67.32
2018-08-17T06:55:07.592Z,67.21
2018-08-17T06:56:18.473Z,67.05
2018-08-17T06:57:24.888Z,66.83
2018-08-17T06:58:31.221Z,65.08
2018-08-17T06:59:37.520Z,64.82
2018-08-17T07:00:43.804Z,65.08
2018-08-17T07:01:50.144Z,64.81
2018-08-17T07:02:57.034Z,64.80
2018-08-17T07:04:03.362Z,65.20
2018-08-17T07:05:09.471Z,65.19
2018-08-17T07:06:15.800Z,65.22
2018-08-17T07:07:22.176Z,65.78
2018-08-17T07:08:33.690Z,66.01
2018-08-17T07:09:40.366Z,65.94
2018-08-17T07:10:46.656Z,65.58
2018-08-17T07:11:52.968Z,65.14
2018-08-17T07:12:59.314Z,64.79
2018-08-17T07:14:05.250Z,63.93
2018-08-17T07:15:11.406Z,64.23
2018-08-17T07:16:17.841Z,64.75
2018-08-17T07:17:24.133Z,65.86
2018-08-17T07:18:30.473Z,64.74
2018-08-17T07:19:36.885Z,65.34
2018-08-17T07:20:42.853Z,66.05
2018-08-17T07:21:49.312Z,64.14
2018-08-17T07:22:55.572Z,64.14
2018-08-17T07:24:01.571Z,63.71
2018-08-17T07:25:08.081Z,64.09
2018-08-17T07:26:14.485Z,64.12
2018-08-17T07:27:20.833Z,64.66
2018-08-17T07:28:27.176Z,63.16
2018-08-17T07:29:33.470Z,63.39
2018-08-17T07:30:39.662Z,63.66
2018-08-17T07:31:45.964Z,63.64
2018-08-17T07:32:51.845Z,63.47
2018-08-17T07:33:58.444Z,63.04
2018-08-17T07:35:04.229Z,63.27
2018-08-17T07:36:10.747Z,63.04
2018-08-17T07:37:23.733Z,62.54
2018-08-17T07:38:41.860Z,62.75
2018-08-17T07:40:04.567Z,62.26
2018-08-17T07:41:23.114Z,61.78
2018-08-17T07:42:33.288Z,61.40
2018-08-17T07:43:39.633Z,61.24
2018-08-17T07:44:46.026Z,61.70
2018-08-17T07:45:51.916Z,62.11
2018-08-17T07:46:58.183Z,61.85
2018-08-17T07:48:04.302Z,61.60
2018-08-17T07:49:10.737Z,61.47
2018-08-17T07:50:16.824Z,60.80
2018-08-17T07:51:23.226Z,61.54
2018-08-17T07:52:29.534Z,61.53
2018-08-17T07:53:35.936Z,61.03
2018-08-17T07:54:42.313Z,59.41
2018-08-17T07:55:48.324Z,59.22
2018-08-17T07:56:54.681Z,58.79
2018-08-17T07:58:01.013Z,59.56
2018-08-17T07:59:07.324Z,58.96
2018-08-17T08:00:13.571Z,58.66
2018-08-17T08:01:19.916Z,59.25
2018-08-17T08:02:26.231Z,60.28
2018-08-17T08:03:32.689Z,59.91
2018-08-17T08:04:38.659Z,58.29
2018-08-17T08:05:45.113Z,58.54
2018-08-17T08:06:51.577Z,59.33
2018-08-17T08:07:57.996Z,58.82
2018-08-17T08:09:03.418Z,57.56
2018-08-17T08:10:08.947Z,57.21
2018-08-17T08:11:15.132Z,57.40
2018-08-17T08:12:21.600Z,57.47
2018-08-17T08:13:27.953Z,57.64
2018-08-17T08:14:34.257Z,57.95
2018-08-17T08:15:40.212Z,57.25
2018-08-17T08:16:46.659Z,56.11
2018-08-17T08:17:52.997Z,55.83
2018-08-17T08:18:59.116Z,56.50
2018-08-17T08:20:16.555Z,56.59
2018-08-17T08:21:22.572Z,56.75
2018-08-17T08:22:28.745Z,55.90
2018-08-17T08:23:35.097Z,55.33
2018-08-17T08:24:42.045Z,55.77
2018-08-17T08:25:49.804Z,56.75
2018-08-17T08:26:57.857Z,57.12
2018-08-17T08:28:05.124Z,56.88
2018-08-17T08:29:12.500Z,56.08
2018-08-17T08:30:20.793Z,56.87
2018-08-17T08:31:31.272Z,57.06
2018-08-17T08:32:38.279Z,55.52
2018-08-17T08:33:47.554Z,55.12
2018-08-17T08:34:55.256Z,56.14
2018-08-17T08:36:03.007Z,55.56
2018-08-17T08:37:09.988Z,56.22
2018-08-17T08:38:16.816Z,56.02
2018-08-17T08:39:23.542Z,54.96
2018-08-17T08:40:29.978Z,55.00
2018-08-17T08:41:36.047Z,54.78
2018-08-17T08:42:41.765Z,54.53
2018-08-17T08:43:47.658Z,54.90
2018-08-17T08:44:53.739Z,54.97
2018-08-17T08:45:59.783Z,54.83
2018-08-17T08:47:05.394Z,55.08
2018-08-17T08:48:11.167Z,54.14
2018-08-17T08:49:17.335Z,54.66
2018-08-17T08:50:23.190Z,54.36
2018-08-17T08:51:28.930Z,53.37
2018-08-17T08:52:35.077Z,53.03
2018-08-17T08:53:41.101Z,52.79
2018-08-17T08:54:54.363Z,53.09
2018-08-17T08:56:11.041Z,51.71
2018-08-17T08:57:20.972Z,53.25
2018-08-17T08:58:27.112Z,52.55
2018-08-17T08:59:32.791Z,52.14
2018-08-17T09:00:38.461Z,52.16
2018-08-17T09:01:44.341Z,52.98
2018-08-17T09:02:50.280Z,53.65
2018-08-17T09:03:56.730Z,52.54
2018-08-17T09:05:02.821Z,52.56
2018-08-17T09:06:08.521Z,50.59
2018-08-17T09:07:14.612Z,50.83
2018-08-17T09:08:21.082Z,50.17
2018-08-17T09:09:27.139Z,50.50
2018-08-17T09:10:33.115Z,50.30
2018-08-17T09:11:38.845Z,51.49
2018-08-17T09:12:44.631Z,51.61
2018-08-17T09:13:50.768Z,51.85
2018-08-17T09:14:56.960Z,52.33
2018-08-17T09:16:02.637Z,52.33
2018-08-17T09:17:08.472Z,52.06
2018-08-17T09:18:13.978Z,52.11
2018-08-17T09:19:19.850Z,50.55
2018-08-17T09:20:25.746Z,50.91
2018-08-17T09:21:32.752Z,51.46
2018-08-17T09:22:39.016Z,50.03
2018-08-17T09:23:45.204Z,49.89
2018-08-17T09:24:51.248Z,49.68
2018-08-17T09:25:57.033Z,48.78
2018-08-17T09:27:02.835Z,49.57
2018-08-17T09:28:08.644Z,49.42
2018-08-17T09:29:14.539Z,49.05
2018-08-17T09:30:21.425Z,48.81
2018-08-17T09:31:27.546Z,47.87
2018-08-17T09:32:34.879Z,48.64
2018-08-17T09:33:40.730Z,47.94
2018-08-17T09:34:46.940Z,48.50
2018-08-17T09:35:53.057Z,48.00
2018-08-17T09:36:58.871Z,48.85
2018-08-17T09:38:04.596Z,48.88
2018-08-17T09:39:10.109Z,48.76
2018-08-17T09:40:16.088Z,49.96
2018-08-17T09:41:22.111Z,49.05
2018-08-17T09:42:28.846Z,48.22
2018-08-17T09:43:35.185Z,48.05
2018-08-17T09:44:41.073Z,47.09
2018-08-17T09:45:47.156Z,48.93
2018-08-17T09:46:53.596Z,48.18
2018-08-17T09:47:59.560Z,48.80
2018-08-17T09:49:05.372Z,49.46
2018-08-17T09:50:10.381Z,49.98
2018-08-17T09:51:16.513Z,50.02
2018-08-17T09:52:22.758Z,47.89
2018-08-17T09:53:28.864Z,48.13
2018-08-17T09:54:34.594Z,49.40
2018-08-17T09:55:40.707Z,48.33
2018-08-17T09:56:46.827Z,48.04
2018-08-17T09:57:52.800Z,50.07
2018-08-17T09:58:58.804Z,48.21
2018-08-17T10:00:04.145Z,47.85
2018-08-17T10:01:09.645Z,48.15
2018-08-17T10:02:29.284Z,47.89
2018-08-17T10:03:35.710Z,48.81
2018-08-17T10:04:41.667Z,48.80
2018-08-17T10:05:47.416Z,49.24
2018-08-17T10:06:53.482Z,48.77
2018-08-17T10:08:04.421Z,48.57
2018-08-17T10:09:10.101Z,48.76
2018-08-17T10:10:16.337Z,48.80
2018-08-17T10:11:23.299Z,48.84
2018-08-17T10:12:28.971Z,48.55
2018-08-17T10:13:34.725Z,49.22
2018-08-17T10:14:40.503Z,48.45
2018-08-17T10:15:46.344Z,49.25
2018-08-17T10:16:52.308Z,48.76
2018-08-17T10:17:57.881Z,48.86
2018-08-17T10:19:04.033Z,49.16
2018-08-17T10:20:09.218Z,49.37
2018-08-17T10:21:15.588Z,49.87
2018-08-17T10:22:21.563Z,50.93
2018-08-17T10:23:27.444Z,50.05
2018-08-17T10:24:33.332Z,50.16
2018-08-17T10:25:39.219Z,50.36
2018-08-17T10:26:44.324Z,49.94
2018-08-17T10:27:50.276Z,50.38
2018-08-17T10:28:55.589Z,50.07
2018-08-17T10:30:01.479Z,50.30
2018-08-17T10:31:07.129Z,50.04
2018-08-17T10:32:12.852Z,50.24
2018-08-17T10:33:19.245Z,49.63
2018-08-17T10:34:25.310Z,49.23
2018-08-17T10:35:31.009Z,47.54
2018-08-17T10:36:47.619Z,48.00
2018-08-17T10:37:57.671Z,48.15
2018-08-17T10:39:03.080Z,48.63
2018-08-17T10:40:09.002Z,49.06
2018-08-17T10:41:14.849Z,48.47
2018-08-17T10:42:20.855Z,49.30
2018-08-17T10:43:26.524Z,48.57
2018-08-17T10:44:31.896Z,47.27
2018-08-17T10:45:37.640Z,47.73
2018-08-17T10:46:43.428Z,46.38
2018-08-17T10:47:49.485Z,46.80
2018-08-17T10:48:55.311Z,46.99
2018-08-17T10:50:01.054Z,46.79
2018-08-17T10:51:06.749Z,46.02
2018-08-17T10:52:12.952Z,46.04
2018-08-17T10:53:18.632Z,46.35
2018-08-17T10:54:25.204Z,46.32
2018-08-17T10:55:30.294Z,47.20
2018-08-17T10:56:36.700Z,46.46
2018-08-17T10:57:42.758Z,46.25
2018-08-17T10:58:48.556Z,47.35
2018-08-17T10:59:54.280Z,46.35
2018-08-17T11:01:00.440Z,44.88
2018-08-17T11:02:06.244Z,45.76
2018-08-17T11:03:12.072Z,45.57
2018-08-17T11:04:17.768Z,45.14
2018-08-17T11:05:23.831Z,44.63
2018-08-17T11:06:29.694Z,45.04
2018-08-17T11:07:35.107Z,45.23
2018-08-17T11:08:40.968Z,44.62
2018-08-17T11:09:46.798Z,44.45
2018-08-17T11:10:52.818Z,45.17
2018-08-17T11:12:00.005Z,44.60
2018-08-17T11:13:05.649Z,44.52
2018-08-17T11:14:11.391Z,44.77
2018-08-17T11:15:17.232Z,45.39
2018-08-17T11:16:22.956Z,45.29
2018-08-17T11:17:31.026Z,45.03
2018-08-17T11:18:37.050Z,44.78
2018-08-17T11:19:42.881Z,45.00
2018-08-17T11:20:49.455Z,45.70
2018-08-17T11:21:55.487Z,46.10
2018-08-17T11:23:01.207Z,45.59
2018-08-17T11:24:07.068Z,45.63
2018-08-17T11:25:12.590Z,45.80
2018-08-17T11:26:18.901Z,45.73
2018-08-17T11:27:24.888Z,45.65
2018-08-17T11:28:30.415Z,46.21
2018-08-17T11:29:36.075Z,45.48
2018-08-17T11:30:41.910Z,45.64
2018-08-17T11:31:47.237Z,45.53
2018-08-17T11:32:53.612Z,45.43
2018-08-17T11:33:59.545Z,44.58
2018-08-17T11:35:04.952Z,44.31
2018-08-17T11:36:11.673Z,44.65
2018-08-17T11:37:17.467Z,44.10
2018-08-17T11:38:23.500Z,43.39
2018-08-17T11:39:29.197Z,43.73
2018-08-17T11:40:35.244Z,44.38
2018-08-17T11:41:41.219Z,43.35
2018-08-17T11:42:47.245Z,43.59
2018-08-17T11:43:52.526Z,43.98
2018-08-17T11:44:58.216Z,43.13
2018-08-17T11:46:03.553Z,43.05
2018-08-17T11:47:09.612Z,43.25
2018-08-17T11:48:14.412Z,43.38
2018-08-17T11:49:20.247Z,42.57
2018-08-17T11:50:25.416Z,42.03
2018-08-17T11:51:31.304Z,41.51
2018-08-17T11:52:36.840Z,41.22
2018-08-17T11:53:42.011Z,41.98
2018-08-17T11:54:48.127Z,42.35
2018-08-17T11:55:53.730Z,43.40
2018-08-17T11:56:59.440Z,44.04
2018-08-17T11:58:05.198Z,41.95
2018-08-17T11:59:11.136Z,42.02
2018-08-17T12:00:17.891Z,42.02
2018-08-17T12:01:23.549Z,40.76
2018-08-17T12:02:29.391Z,41.33
2018-08-17T12:03:35.068Z,40.99
2018-08-17T12:04:40.512Z,42.00
2018-08-17T12:05:46.478Z,41.72
2018-08-17T12:06:52.271Z,40.91
2018-08-17T12:07:58.089Z,40.35
2018-08-17T12:09:03.288Z,40.56
2018-08-17T12:10:08.388Z,40.78
2018-08-17T12:11:14.021Z,41.04
2018-08-17T12:12:19.900Z,40.85
2018-08-17T12:13:25.693Z,39.89
2018-08-17T12:14:31.541Z,41.04
2018-08-17T12:15:37.034Z,40.89
2018-08-17T12:16:43.380Z,42.44
2018-08-17T12:17:49.283Z,41.47
2018-08-17T12:18:55.742Z,41.48
2018-08-17T12:20:01.595Z,41.41
2018-08-17T12:21:07.401Z,41.65
2018-08-17T12:22:13.202Z,43.06
2018-08-17T12:23:18.874Z,43.07
2018-08-17T12:24:24.799Z,42.68
2018-08-17T12:25:30.698Z,42.54
2018-08-17T12:26:36.148Z,42.10
2018-08-17T12:27:41.357Z,41.56
2018-08-17T12:28:47.271Z,43.19
2018-08-17T12:29:53.061Z,41.65
2018-08-17T12:30:58.445Z,41.54
2018-08-17T12:32:04.141Z,41.26
2018-08-17T12:33:10.380Z,41.60
2018-08-17T12:34:16.773Z,40.85
2018-08-17T12:35:22.185Z,41.06
2018-08-17T12:36:27.871Z,41.00
2018-08-17T12:37:33.663Z,41.99
2018-08-17T12:38:39.980Z,42.02
2018-08-17T12:39:45.900Z,42.89
2018-08-17T12:40:51.918Z,40.95
2018-08-17T12:41:57.679Z,41.33
2018-08-17T12:43:03.480Z,41.84
2018-08-17T12:44:09.168Z,41.84
2018-08-17T12:45:14.641Z,42.31
2018-08-17T12:46:20.396Z,40.89
2018-08-17T12:47:26.368Z,40.19
2018-08-17T12:48:32.207Z,39.94
2018-08-17T12:49:38.172Z,40.42
2018-08-17T12:50:43.575Z,40.66
2018-08-17T12:51:49.305Z,40.63
2018-08-17T12:52:54.951Z,39.74
2018-08-17T12:54:00.766Z,38.91
2018-08-17T12:55:06.123Z,39.34
2018-08-17T12:56:11.881Z,40.16
2018-08-17T12:57:17.074Z,40.63
2018-08-17T12:58:22.943Z,41.08
2018-08-17T12:59:28.656Z,41.58
2018-08-17T13:00:34.659Z,41.38
2018-08-17T13:01:40.960Z,40.21
2018-08-17T13:02:46.684Z,39.94
2018-08-17T13:03:52.352Z,39.61
2018-08-17T13:04:58.365Z,40.38
2018-08-17T13:06:04.080Z,39.96
2018-08-17T13:07:09.757Z,40.89
2018-08-17T13:08:15.563Z,41.11
2018-08-17T13:09:21.243Z,41.70
2018-08-17T13:10:27.055Z,41.58
2018-08-17T13:11:32.581Z,41.91
2018-08-17T13:12:39.059Z,42.05
2018-08-17T13:13:44.872Z,42.04
2018-08-17T13:14:50.197Z,42.89
2018-08-17T13:15:56.195Z,43.38
2018-08-17T13:17:01.995Z,42.02
2018-08-17T13:18:07.188Z,41.81
2018-08-17T13:19:12.896Z,41.85
2018-08-17T13:20:18.648Z,41.12
2018-08-17T13:21:24.481Z,41.61
2018-08-17T13:22:30.249Z,41.15
2018-08-17T13:23:36.079Z,42.50
2018-08-17T13:24:42.172Z,41.60
2018-08-17T13:25:47.924Z,41.82
2018-08-17T13:26:53.896Z,41.61
2018-08-17T13:27:59.696Z,41.88
2018-08-17T13:29:05.168Z,42.51
2018-08-17T13:30:11.444Z,42.49
2018-08-17T13:31:17.196Z,42.57
2018-08-17T13:32:22.880Z,42.45
2018-08-17T13:33:28.566Z,42.33
2018-08-17T13:34:34.256Z,42.02
2018-08-17T13:35:40.072Z,42.49
2018-08-17T13:36:45.547Z,42.23
2018-08-17T13:37:52.169Z,42.13
2018-08-17T13:38:58.743Z,42.44
2018-08-17T13:40:04.660Z,42.35
2018-08-17T13:41:12.405Z,41.91
2018-08-17T13:42:18.532Z,41.11
2018-08-17T13:43:25.246Z,40.05
2018-08-17T13:44:32.093Z,39.77
2018-08-17T13:45:39.085Z,41.19
2018-08-17T13:46:46.816Z,41.30
2018-08-17T13:47:53.452Z,41.35
2018-08-17T13:49:00.431Z,40.65
2018-08-17T13:50:06.247Z,41.12
2018-08-17T13:51:15.487Z,41.37
2018-08-17T13:52:21.231Z,41.37
2018-08-17T13:53:27.116Z,41.25
2018-08-17T13:54:32.896Z,41.19
2018-08-17T13:55:38.589Z,41.06
2018-08-17T13:56:44.425Z,40.82
2018-08-17T13:57:50.193Z,40.61
2018-08-17T13:58:55.886Z,41.14
2018-08-17T14:00:01.808Z,40.48
2018-08-17T14:01:07.619Z,40.33
2018-08-17T14:02:13.487Z,39.63
2018-08-17T14:03:19.287Z,39.64
2018-08-17T14:04:24.980Z,39.72
2018-08-17T14:05:31.430Z,40.24
2018-08-17T14:06:37.101Z,39.97
2018-08-17T14:07:42.930Z,40.47
2018-08-17T14:08:48.597Z,39.39
2018-08-17T14:09:54.400Z,38.85
2018-08-17T14:11:01.082Z,39.44
2018-08-17T14:12:06.041Z,39.42
2018-08-17T14:13:11.926Z,39.76
2018-08-17T14:14:17.631Z,38.95
2018-08-17T14:15:23.400Z,39.79
2018-08-17T14:16:29.834Z,40.64
2018-08-17T14:17:36.339Z,40.63
2018-08-17T14:18:42.160Z,40.55
2018-08-17T14:19:47.934Z,41.05
2018-08-17T14:20:54.216Z,39.81
2018-08-17T14:22:00.089Z,39.89
2018-08-17T14:23:06.212Z,40.06